createdAt,value
2023-03-08T00:01:25.996Z,96009.00
2023-03-08T00:03:55.941Z,96016.00
2023-03-08T00:06:26.761Z,96008.00
2023-03-08T00:08:58.030Z,96015.00
2023-03-08T00:11:27.002Z,96023.00
2023-03-08T00:13:56.980Z,96025.00
2023-03-08T00:16:25.822Z,96020.00
2023-03-08T00:18:54.019Z,96012.00
2023-03-08T00:21:22.536Z,96006.00
2023-03-08T00:23:54.459Z,96016.00
2023-03-08T00:26:22.990Z,96029.00
2023-03-08T00:28:51.428Z,96033.00
2023-03-08T00:31:23.127Z,96018.00
2023-03-08T00:33:55.292Z,96028.00
2023-03-08T00:36:24.081Z,96042.00
2023-03-08T00:38:52.722Z,96034.00
2023-03-08T00:41:21.561Z,96023.00
2023-03-08T00:43:50.487Z,96008.00
2023-03-08T00:46:18.769Z,96030.00
2023-03-08T00:48:48.502Z,96012.00
2023-03-08T00:51:18.855Z,96014.00
2023-03-08T00:53:48.719Z,96020.00
2023-03-08T00:56:17.305Z,96028.00
2023-03-08T00:58:46.413Z,96029.00
2023-03-08T01:01:17.752Z,96026.00
2023-03-08T01:03:49.639Z,96034.00
2023-03-08T01:06:18.447Z,96021.00
2023-03-08T01:08:46.799Z,96020.00
2023-03-08T01:11:20.634Z,96027.00
2023-03-08T01:13:50.003Z,96011.00
2023-03-08T01:16:21.875Z,96008.00
2023-03-08T01:18:52.036Z,96026.00
2023-03-08T01:21:22.550Z,96018.00
2023-03-08T01:23:51.897Z,96024.00
2023-03-08T01:26:23.865Z,96022.00
2023-03-08T01:28:52.884Z,96029.00
2023-03-08T01:31:24.037Z,96018.00
2023-03-08T01:33:55.755Z,96031.00
2023-03-08T01:36:27.152Z,96032.00
2023-03-08T01:38:55.980Z,96020.00
2023-03-08T01:41:27.679Z,96026.00
2023-03-08T01:43:56.147Z,96033.00
2023-03-08T01:46:28.422Z,96026.00
2023-03-08T01:49:20.636Z,96021.00
2023-03-08T01:51:58.183Z,96014.00
2023-03-08T01:54:33.566Z,96019.00
2023-03-08T01:57:06.546Z,96008.00
2023-03-08T01:59:36.642Z,96011.00
2023-03-08T02:02:07.503Z,96018.00
2023-03-08T02:04:38.488Z,96023.00
2023-03-08T02:07:10.571Z,96002.00
2023-03-08T02:09:39.205Z,96012.00
2023-03-08T02:12:14.036Z,96017.00
2023-03-08T02:14:44.676Z,96009.00
2023-03-08T02:17:13.440Z,95991.00
2023-03-08T02:19:52.279Z,95999.00
2023-03-08T02:22:22.684Z,96004.00
2023-03-08T02:24:52.244Z,95999.00
2023-03-08T02:27:26.688Z,95989.00
2023-03-08T02:29:55.272Z,95997.00
2023-03-08T02:32:24.306Z,95995.00
2023-03-08T02:34:52.530Z,95995.00
2023-03-08T02:37:20.680Z,96001.00
2023-03-08T02:39:50.754Z,95996.00
2023-03-08T02:42:18.924Z,95980.00
2023-03-08T02:44:47.130Z,95988.00
2023-03-08T02:47:16.947Z,95983.00
2023-03-08T02:49:45.643Z,95988.00
2023-03-08T02:52:13.859Z,95989.00
2023-03-08T02:54:41.995Z,95986.00
2023-03-08T02:57:11.623Z,96004.00
2023-03-08T02:59:40.145Z,95996.00
2023-03-08T03:02:08.480Z,95993.00
2023-03-08T03:04:36.677Z,95994.00
2023-03-08T03:07:05.287Z,95996.00
2023-03-08T03:09:37.706Z,95994.00
2023-03-08T03:12:06.372Z,95985.00
2023-03-08T03:14:38.859Z,95986.00
2023-03-08T03:17:07.414Z,95979.00
2023-03-08T03:19:35.659Z,95980.00
2023-03-08T03:22:04.040Z,95993.00
2023-03-08T03:24:32.655Z,95976.00
2023-03-08T03:27:01.734Z,95986.00
2023-03-08T03:29:34.399Z,95980.00
2023-03-08T03:32:13.620Z,95985.00
2023-03-08T03:34:41.963Z,95982.00
2023-03-08T03:37:10.741Z,95966.00
2023-03-08T03:39:41.694Z,95952.00
2023-03-08T03:42:12.774Z,95974.00
2023-03-08T03:44:47.406Z,95960.00
2023-03-08T03:47:21.337Z,95975.00
2023-03-08T03:49:54.191Z,95978.00
2023-03-08T03:52:23.481Z,95971.00
2023-03-08T03:54:58.841Z,95956.00
2023-03-08T03:57:27.076Z,95962.00
2023-03-08T03:59:55.342Z,95960.00
2023-03-08T04:02:26.037Z,95962.00
2023-03-08T04:04:59.037Z,95952.00
2023-03-08T04:07:30.841Z,95958.00
2023-03-08T04:10:01.715Z,95951.00
2023-03-08T04:12:31.804Z,95961.00
2023-03-08T04:14:59.958Z,95941.00
2023-03-08T04:17:32.963Z,95953.00
2023-03-08T04:20:01.219Z,95950.00
2023-03-08T04:22:33.538Z,95952.00
2023-03-08T04:25:09.487Z,95953.00
2023-03-08T04:27:45.022Z,95950.00
2023-03-08T04:30:14.726Z,95940.00
2023-03-08T04:32:44.343Z,95950.00
2023-03-08T04:35:13.305Z,95940.00
2023-03-08T04:37:45.500Z,95944.00
2023-03-08T04:40:15.025Z,95937.00
2023-03-08T04:42:52.978Z,95917.00
2023-03-08T04:45:26.868Z,95939.00
2023-03-08T04:47:59.416Z,95941.00
2023-03-08T04:50:27.601Z,95920.00
2023-03-08T04:52:58.552Z,95917.00
2023-03-08T04:55:27.224Z,95904.00
2023-03-08T04:57:55.383Z,95908.00
2023-03-08T05:00:24.626Z,95913.00
2023-03-08T05:02:53.390Z,95907.00
2023-03-08T05:05:24.484Z,95921.00
2023-03-08T05:07:53.833Z,95920.00
2023-03-08T05:10:22.442Z,95896.00
2023-03-08T05:12:51.540Z,95907.00
2023-03-08T05:15:19.900Z,95900.00
2023-03-08T05:17:48.181Z,95883.00
2023-03-08T05:20:17.409Z,95876.00
2023-03-08T05:22:57.878Z,95874.00
2023-03-08T05:25:32.215Z,95874.00
2023-03-08T05:28:01.859Z,95878.00
2023-03-08T05:30:30.090Z,95864.00
2023-03-08T05:32:58.701Z,95871.00
2023-03-08T05:35:26.854Z,95876.00
2023-03-08T05:37:59.087Z,95882.00
2023-03-08T05:40:27.979Z,95873.00
2023-03-08T05:42:57.552Z,95864.00
2023-03-08T05:45:27.571Z,95868.00
2023-03-08T05:47:56.539Z,95866.00
2023-03-08T05:50:25.673Z,95873.00
2023-03-08T05:52:56.047Z,95862.00
2023-03-08T05:55:28.745Z,95863.00
2023-03-08T05:57:58.289Z,95870.00
2023-03-08T06:00:27.435Z,95852.00
2023-03-08T06:03:03.876Z,95870.00
2023-03-08T06:05:35.071Z,95873.00
2023-03-08T06:08:04.911Z,95886.00
2023-03-08T06:10:33.162Z,95891.00
2023-03-08T06:13:03.381Z,95902.00
2023-03-08T06:15:31.562Z,95903.00
2023-03-08T06:17:59.754Z,95908.00
2023-03-08T06:20:29.276Z,95902.00
2023-03-08T06:22:57.464Z,95906.00
2023-03-08T06:25:27.577Z,95908.00
2023-03-08T06:27:56.373Z,95892.00
2023-03-08T06:30:33.613Z,95899.00
2023-03-08T06:33:01.824Z,95884.00
2023-03-08T06:35:30.018Z,95880.00
2023-03-08T06:38:02.078Z,95883.00
2023-03-08T06:40:31.703Z,95879.00
2023-03-08T06:43:00.636Z,95881.00
2023-03-08T06:45:28.906Z,95859.00
2023-03-08T06:47:57.065Z,95877.00
2023-03-08T06:50:25.356Z,95882.00
2023-03-08T06:52:55.253Z,95885.00
2023-03-08T06:55:36.076Z,95883.00
2023-03-08T06:58:04.356Z,95884.00
2023-03-08T07:00:33.589Z,95883.00
2023-03-08T07:03:03.153Z,95872.00
2023-03-08T07:05:31.415Z,95875.00
2023-03-08T07:07:59.620Z,95872.00
2023-03-08T07:10:28.100Z,95868.00
2023-03-08T07:12:57.798Z,95885.00
2023-03-08T07:15:26.465Z,95882.00
2023-03-08T07:17:57.012Z,95887.00
2023-03-08T07:20:28.388Z,95865.00
2023-03-08T07:22:57.085Z,95874.00
2023-03-08T07:25:25.230Z,95871.00
2023-03-08T07:27:53.392Z,95861.00
2023-03-08T07:30:23.197Z,95856.00
2023-03-08T07:32:54.169Z,95840.00
2023-03-08T07:35:22.622Z,95864.00
2023-03-08T07:37:51.149Z,95847.00
2023-03-08T07:40:19.967Z,95856.00
2023-03-08T07:42:48.667Z,95857.00
2023-03-08T07:45:40.364Z,95864.00
2023-03-08T07:48:08.910Z,95857.00
2023-03-08T07:50:37.682Z,95847.00
2023-03-08T07:53:07.762Z,95849.00
2023-03-08T07:55:37.959Z,95852.00
2023-03-08T07:58:06.264Z,95848.00
2023-03-08T08:00:34.844Z,95868.00
2023-03-08T08:03:04.819Z,95854.00
2023-03-08T08:05:33.080Z,95850.00
2023-03-08T08:08:01.316Z,95852.00
2023-03-08T08:10:30.237Z,95844.00
2023-03-08T08:12:58.398Z,95842.00
2023-03-08T08:15:26.868Z,95836.00
2023-03-08T08:17:55.015Z,95850.00
2023-03-08T08:20:25.141Z,95832.00
2023-03-08T08:22:53.469Z,95838.00
2023-03-08T08:25:22.430Z,95821.00
2023-03-08T08:27:51.940Z,95820.00
2023-03-08T08:30:20.735Z,95821.00
2023-03-08T08:32:49.010Z,95812.00
2023-03-08T08:35:17.469Z,95808.00
2023-03-08T08:37:46.985Z,95802.00
2023-03-08T08:40:15.424Z,95787.00
2023-03-08T08:42:43.557Z,95783.00
2023-03-08T08:45:12.568Z,95783.00
2023-03-08T08:47:40.801Z,95778.00
2023-03-08T08:50:12.411Z,95778.00
2023-03-08T08:52:42.347Z,95790.00
2023-03-08T08:55:12.269Z,95779.00
2023-03-08T08:57:40.548Z,95771.00
2023-03-08T09:00:11.124Z,95763.00
2023-03-08T09:02:39.421Z,95756.00
2023-03-08T09:05:08.302Z,95763.00
2023-03-08T09:07:38.277Z,95751.00
2023-03-08T09:10:10.069Z,95751.00
2023-03-08T09:12:40.303Z,95747.00
2023-03-08T09:15:10.189Z,95742.00
2023-03-08T09:17:39.306Z,95736.00
2023-03-08T09:20:10.234Z,95703.00
2023-03-08T09:22:38.905Z,95695.00
2023-03-08T09:25:08.662Z,95689.00
2023-03-08T09:27:39.586Z,95689.00
2023-03-08T09:30:12.663Z,95679.00
2023-03-08T09:32:41.415Z,95685.00
2023-03-08T09:35:10.659Z,95678.00
2023-03-08T09:37:39.212Z,95666.00
2023-03-08T09:40:09.664Z,95664.00
2023-03-08T09:42:39.518Z,95650.00
2023-03-08T09:45:20.743Z,95651.00
2023-03-08T09:47:55.125Z,95649.00
2023-03-08T09:50:38.488Z,95635.00
2023-03-08T09:53:19.228Z,95637.00
2023-03-08T09:55:52.964Z,95621.00
2023-03-08T09:58:34.349Z,95608.00
2023-03-08T10:01:20.160Z,95610.00
2023-03-08T10:04:24.021Z,95598.00
2023-03-08T10:07:11.661Z,95582.00
2023-03-08T10:09:47.882Z,95580.00
2023-03-08T10:12:29.325Z,95578.00
2023-03-08T10:15:10.016Z,95573.00
2023-03-08T10:17:48.951Z,95573.00
2023-03-08T10:20:25.977Z,95581.00
2023-03-08T10:23:00.212Z,95566.00
2023-03-08T10:25:31.662Z,95563.00
2023-03-08T10:28:04.420Z,95572.00
2023-03-08T10:30:41.163Z,95562.00
2023-03-08T10:33:14.556Z,95547.00
2023-03-08T10:35:58.082Z,95549.00
2023-03-08T10:38:31.842Z,95550.00
2023-03-08T10:41:07.084Z,95549.00
2023-03-08T10:43:41.253Z,95549.00
2023-03-08T10:46:17.316Z,95536.00
2023-03-08T10:48:46.642Z,95534.00
2023-03-08T10:51:21.478Z,95530.00
2023-03-08T10:53:57.448Z,95532.00
2023-03-08T10:56:33.357Z,95539.00
2023-03-08T10:59:01.980Z,95529.00
2023-03-08T11:01:34.483Z,95513.00
2023-03-08T11:04:06.587Z,95522.00
2023-03-08T11:06:36.168Z,95523.00
2023-03-08T11:09:19.943Z,95523.00
2023-03-08T11:11:48.372Z,95515.00
2023-03-08T11:14:17.554Z,95514.00
2023-03-08T11:17:02.326Z,95527.00
2023-03-08T11:20:11.109Z,95521.00
2023-03-08T11:22:58.322Z,95517.00
2023-03-08T11:25:39.622Z,95500.00
2023-03-08T11:28:39.765Z,95507.00
2023-03-08T11:31:20.147Z,95499.00
2023-03-08T11:34:31.059Z,95495.00
2023-03-08T11:37:10.421Z,95494.00
2023-03-08T11:39:47.143Z,95510.00
2023-03-08T11:42:33.546Z,95494.00
2023-03-08T11:45:23.239Z,95477.00
2023-03-08T11:48:26.449Z,95475.00
2023-03-08T11:51:07.472Z,95463.00
2023-03-08T11:53:53.322Z,95454.00
2023-03-08T11:56:52.074Z,95473.00
2023-03-08T11:59:33.994Z,95428.00
2023-03-08T12:02:13.974Z,95439.00
2023-03-08T12:04:55.142Z,95443.00
2023-03-08T12:07:35.329Z,95441.00
2023-03-08T12:10:16.586Z,95431.00
2023-03-08T12:12:53.379Z,95429.00
2023-03-08T12:15:32.055Z,95431.00
2023-03-08T12:18:08.727Z,95434.00
2023-03-08T12:20:42.640Z,95439.00
2023-03-08T12:23:27.206Z,95417.00
2023-03-08T12:26:09.067Z,95410.00
2023-03-08T12:28:44.468Z,95430.00
2023-03-08T12:31:28.350Z,95413.00
2023-03-08T12:34:00.398Z,95399.00
2023-03-08T12:36:40.252Z,95399.00
2023-03-08T12:39:26.721Z,95369.00
2023-03-08T12:42:14.426Z,95403.00
2023-03-08T12:44:43.984Z,95424.00
2023-03-08T12:47:24.255Z,95393.00
2023-03-08T12:49:56.348Z,95382.00
2023-03-08T12:52:34.947Z,95377.00
2023-03-08T12:55:17.061Z,95376.00
2023-03-08T12:57:50.936Z,95384.00
2023-03-08T13:00:30.395Z,95393.00
2023-03-08T13:03:06.769Z,95380.00
2023-03-08T13:05:37.543Z,95365.00
2023-03-08T13:08:33.082Z,95371.00
2023-03-08T13:11:17.011Z,95374.00
2023-03-08T13:13:53.377Z,95342.00
2023-03-08T13:16:35.965Z,95367.00
2023-03-08T13:19:22.755Z,95352.00
2023-03-08T13:22:02.272Z,95363.00
2023-03-08T13:24:51.620Z,95363.00
2023-03-08T13:27:48.134Z,95358.00
2023-03-08T13:30:25.010Z,95360.00
2023-03-08T13:32:53.849Z,95361.00
2023-03-08T13:35:23.013Z,95353.00
2023-03-08T13:37:55.721Z,95362.00
2023-03-08T13:40:25.608Z,95354.00
2023-03-08T13:42:57.836Z,95343.00
2023-03-08T13:45:27.456Z,95344.00
2023-03-08T13:47:59.391Z,95342.00
2023-03-08T13:50:32.357Z,95350.00
2023-03-08T13:53:02.943Z,95339.00
2023-03-08T13:55:41.044Z,95341.00
2023-03-08T13:58:30.999Z,95344.00
2023-03-08T14:01:05.728Z,95326.00
2023-03-08T14:03:34.701Z,95334.00
2023-03-08T14:06:03.121Z,95342.00
2023-03-08T14:08:31.342Z,95331.00
2023-03-08T14:11:04.557Z,95321.00
2023-03-08T14:13:37.421Z,95326.00
2023-03-08T14:16:08.767Z,95319.00
2023-03-08T14:18:40.122Z,95325.00
2023-03-08T14:21:16.012Z,95317.00
2023-03-08T14:23:49.885Z,95303.00
2023-03-08T14:26:33.901Z,95302.00
2023-03-08T14:29:21.602Z,95312.00
2023-03-08T14:32:04.498Z,95304.00
2023-03-08T14:34:36.329Z,95294.00
2023-03-08T14:37:13.202Z,95285.00
2023-03-08T14:39:45.684Z,95291.00
2023-03-08T14:42:24.772Z,95307.00
2023-03-08T14:44:58.884Z,95304.00
2023-03-08T14:47:29.548Z,95287.00
2023-03-08T14:50:05.130Z,95269.00
2023-03-08T14:52:37.742Z,95290.00
2023-03-08T14:55:23.862Z,95266.00
2023-03-08T14:57:57.050Z,95275.00
2023-03-08T15:00:29.808Z,95271.00
2023-03-08T15:02:59.817Z,95267.00
2023-03-08T15:05:30.349Z,95272.00
2023-03-08T15:08:00.679Z,95274.00
2023-03-08T15:10:36.547Z,95263.00
2023-03-08T15:13:06.059Z,95276.00
2023-03-08T15:15:35.591Z,95255.00
2023-03-08T15:18:04.051Z,95256.00
2023-03-08T15:20:33.021Z,95256.00
2023-03-08T15:23:05.901Z,95248.00
2023-03-08T15:25:38.710Z,95244.00
2023-03-08T15:28:07.613Z,95238.00
2023-03-08T15:30:37.162Z,95238.00
2023-03-08T15:33:05.492Z,95249.00
2023-03-08T15:35:33.997Z,95250.00
2023-03-08T15:38:02.275Z,95240.00
2023-03-08T15:40:34.082Z,95256.00
2023-03-08T15:43:02.581Z,95259.00
2023-03-08T15:45:30.952Z,95256.00
2023-03-08T15:48:03.132Z,95269.00
2023-03-08T15:50:36.507Z,95265.00
2023-03-08T15:53:05.087Z,95266.00
2023-03-08T15:55:33.687Z,95281.00
2023-03-08T15:58:02.350Z,95293.00
2023-03-08T16:00:31.128Z,95284.00
2023-03-08T16:03:02.185Z,95289.00
2023-03-08T16:05:33.169Z,95278.00
2023-03-08T16:08:04.672Z,95289.00
2023-03-08T16:10:40.680Z,95264.00
2023-03-08T16:13:11.245Z,95259.00
2023-03-08T16:15:41.447Z,95259.00
2023-03-08T16:18:12.202Z,95242.00
2023-03-08T16:20:41.501Z,95243.00
2023-03-08T16:23:10.094Z,95261.00
2023-03-08T16:25:38.465Z,95253.00
2023-03-08T16:28:06.739Z,95256.00
2023-03-08T16:30:35.208Z,95266.00
2023-03-08T16:33:03.475Z,95234.00
2023-03-08T16:35:33.092Z,95251.00
2023-03-08T16:38:01.372Z,95244.00
2023-03-08T16:40:31.222Z,95244.00
2023-03-08T16:42:59.496Z,95256.00
2023-03-08T16:45:27.818Z,95233.00
2023-03-08T16:47:56.161Z,95234.00
2023-03-08T16:50:27.315Z,95245.00
2023-03-08T16:52:58.548Z,95228.00
2023-03-08T16:55:27.355Z,95233.00
2023-03-08T16:57:55.941Z,95243.00
2023-03-08T17:00:27.101Z,95234.00
2023-03-08T17:02:56.464Z,95240.00
2023-03-08T17:05:24.723Z,95240.00
2023-03-08T17:07:52.925Z,95243.00
2023-03-08T17:10:22.472Z,95255.00
2023-03-08T17:12:50.851Z,95243.00
2023-03-08T17:15:19.202Z,95259.00
2023-03-08T17:17:47.697Z,95250.00
2023-03-08T17:20:15.897Z,95237.00
2023-03-08T17:22:44.993Z,95250.00
2023-03-08T17:25:13.729Z,95255.00
2023-03-08T17:27:44.082Z,95254.00
2023-03-08T17:30:16.068Z,95262.00
2023-03-08T17:32:44.571Z,95263.00
2023-03-08T17:35:12.858Z,95256.00
2023-03-08T17:37:41.620Z,95265.00
2023-03-08T17:40:12.258Z,95271.00
2023-03-08T17:42:40.728Z,95269.00
2023-03-08T17:45:11.731Z,95272.00
2023-03-08T17:47:40.183Z,95266.00
2023-03-08T17:50:12.942Z,95281.00
2023-03-08T17:52:41.623Z,95267.00
2023-03-08T17:55:11.699Z,95265.00
2023-03-08T17:57:40.252Z,95258.00
2023-03-08T18:00:12.433Z,95268.00
2023-03-08T18:02:40.707Z,95263.00
2023-03-08T18:05:10.869Z,95257.00
2023-03-08T18:07:41.832Z,95259.00
2023-03-08T18:10:13.806Z,95253.00
2023-03-08T18:12:42.451Z,95246.00
2023-03-08T18:15:14.425Z,95253.00
2023-03-08T18:17:42.909Z,95255.00
2023-03-08T18:20:12.587Z,95246.00
2023-03-08T18:22:41.825Z,95247.00
2023-03-08T18:25:11.103Z,95240.00
2023-03-08T18:27:39.986Z,95251.00
2023-03-08T18:30:12.866Z,95243.00
2023-03-08T18:32:41.623Z,95224.00
2023-03-08T18:35:13.160Z,95248.00
2023-03-08T18:37:41.563Z,95237.00
2023-03-08T18:40:12.510Z,95228.00
2023-03-08T18:42:41.046Z,95227.00
2023-03-08T18:45:13.017Z,95220.00
2023-03-08T18:47:41.537Z,95204.00
2023-03-08T18:50:12.140Z,95216.00
2023-03-08T18:52:40.469Z,95211.00
2023-03-08T18:55:10.135Z,95196.00
2023-03-08T18:57:39.182Z,95193.00
2023-03-08T19:00:11.113Z,95216.00
2023-03-08T19:02:41.122Z,95205.00
2023-03-08T19:05:10.369Z,95214.00
2023-03-08T19:07:40.966Z,95211.00
2023-03-08T19:10:14.685Z,95209.00
2023-03-08T19:12:43.710Z,95203.00
2023-03-08T19:15:12.796Z,95220.00
2023-03-08T19:17:42.409Z,95218.00
2023-03-08T19:20:12.589Z,95207.00
2023-03-08T19:22:40.920Z,95216.00
2023-03-08T19:25:10.007Z,95214.00
2023-03-08T19:27:38.512Z,95204.00
2023-03-08T19:30:08.391Z,95207.00
2023-03-08T19:32:36.685Z,95210.00
2023-03-08T19:35:07.482Z,95197.00
2023-03-08T19:37:35.904Z,95205.00
2023-03-08T19:40:09.345Z,95196.00
2023-03-08T19:42:37.720Z,95191.00
2023-03-08T19:45:07.338Z,95201.00
2023-03-08T19:47:35.655Z,95182.00
2023-03-08T19:50:05.776Z,95201.00
2023-03-08T19:52:34.143Z,95191.00
2023-03-08T19:55:03.002Z,95197.00
2023-03-08T19:57:31.357Z,95204.00
2023-03-08T20:00:01.184Z,95196.00
2023-03-08T20:02:42.265Z,95201.00
2023-03-08T20:05:12.081Z,95195.00
2023-03-08T20:07:40.401Z,95197.00
2023-03-08T20:10:16.607Z,95187.00
2023-03-08T20:12:45.135Z,95179.00
2023-03-08T20:15:13.810Z,95179.00
2023-03-08T20:17:42.111Z,95186.00
2023-03-08T20:20:14.050Z,95197.00
2023-03-08T20:22:42.312Z,95194.00
2023-03-08T20:25:12.612Z,95210.00
2023-03-08T20:27:41.426Z,95212.00
2023-03-08T20:30:13.185Z,95211.00
2023-03-08T20:32:41.666Z,95208.00
2023-03-08T20:35:14.960Z,95207.00
2023-03-08T20:37:43.434Z,95229.00
2023-03-08T20:40:14.283Z,95225.00
2023-03-08T20:42:42.520Z,95228.00
2023-03-08T20:45:11.949Z,95227.00
2023-03-08T20:47:40.337Z,95232.00
2023-03-08T20:50:11.840Z,95236.00
2023-03-08T20:52:40.097Z,95246.00
2023-03-08T20:55:09.351Z,95241.00
2023-03-08T20:57:38.046Z,95219.00
2023-03-08T21:00:09.253Z,95218.00
2023-03-08T21:02:38.357Z,95222.00
2023-03-08T21:05:08.007Z,95235.00
2023-03-08T21:07:37.687Z,95234.00
2023-03-08T21:10:06.964Z,95244.00
2023-03-08T21:12:36.033Z,95262.00
2023-03-08T21:15:06.086Z,95227.00
2023-03-08T21:17:36.755Z,95228.00
2023-03-08T21:20:06.285Z,95208.00
2023-03-08T21:22:34.538Z,95266.00
2023-03-08T21:25:08.190Z,95211.00
2023-03-08T21:27:37.235Z,95247.00
2023-03-08T21:30:06.975Z,95257.00
2023-03-08T21:32:35.326Z,95262.00
2023-03-08T21:35:04.050Z,95277.00
2023-03-08T21:37:32.366Z,95280.00
2023-03-08T21:40:00.798Z,95266.00
2023-03-08T21:42:30.648Z,95267.00
2023-03-08T21:44:59.178Z,95279.00
2023-03-08T21:47:27.562Z,95283.00
2023-03-08T21:49:55.765Z,95275.00
2023-03-08T21:52:23.964Z,95275.00
2023-03-08T21:54:52.474Z,95279.00
2023-03-08T21:57:20.689Z,95308.00
2023-03-08T21:59:50.419Z,95297.00
2023-03-08T22:02:18.686Z,95298.00
2023-03-08T22:04:47.004Z,95293.00
2023-03-08T22:07:15.257Z,95274.00
2023-03-08T22:09:43.998Z,95296.00
2023-03-08T22:12:12.195Z,95294.00
2023-03-08T22:14:40.433Z,95289.00
2023-03-08T22:17:10.108Z,95275.00
2023-03-08T22:19:38.337Z,95264.00
2023-03-08T22:22:06.532Z,95258.00
2023-03-08T22:24:34.822Z,95261.00
2023-03-08T22:27:04.614Z,95264.00
2023-03-08T22:29:33.746Z,95248.00
2023-03-08T22:32:02.020Z,95256.00
2023-03-08T22:34:31.665Z,95251.00
2023-03-08T22:37:00.361Z,95251.00
2023-03-08T22:39:28.965Z,95246.00
2023-03-08T22:41:57.381Z,95255.00
2023-03-08T22:44:25.515Z,95256.00
2023-03-08T22:46:53.676Z,95258.00
2023-03-08T22:49:21.827Z,95249.00
2023-03-08T22:51:52.374Z,95244.00
2023-03-08T22:54:24.053Z,95235.00
2023-03-08T22:56:52.680Z,95236.00
2023-03-08T22:59:20.817Z,95217.00
2023-03-08T23:01:49.100Z,95217.00
2023-03-08T23:04:17.512Z,95224.00
2023-03-08T23:06:46.003Z,95207.00
2023-03-08T23:09:17.112Z,95206.00
2023-03-08T23:11:46.631Z,95212.00
2023-03-08T23:14:15.194Z,95203.00
2023-03-08T23:16:46.075Z,95227.00
2023-03-08T23:19:18.077Z,95227.00
2023-03-08T23:21:46.735Z,95217.00
2023-03-08T23:24:17.754Z,95211.00
2023-03-08T23:26:46.901Z,95203.00
2023-03-08T23:29:15.888Z,95219.00
2023-03-08T23:31:46.735Z,95201.00
2023-03-08T23:34:14.992Z,95193.00
2023-03-08T23:36:43.162Z,95183.00
2023-03-08T23:39:12.390Z,95183.00
2023-03-08T23:41:42.216Z,95185.00
2023-03-08T23:44:12.034Z,95210.00
2023-03-08T23:46:40.496Z,95197.00
2023-03-08T23:49:08.668Z,95216.00
2023-03-08T23:51:37.434Z,95193.00
2023-03-08T23:54:06.181Z,95193.00
2023-03-08T23:56:38.592Z,95184.00
2023-03-08T23:59:13.144Z,95182.00
